createdAt,value
2016-06-13T00:00:40.985Z,960.49
2016-06-13T00:01:40.988Z,960.48
2016-06-13T00:02:40.990Z,960.49
2016-06-13T00:03:40.993Z,960.49
2016-06-13T00:04:40.997Z,960.45
2016-06-13T00:05:41.000Z,960.47
2016-06-13T00:06:40.987Z,960.5
2016-06-13T00:07:40.989Z,960.46
2016-06-13T00:08:40.993Z,960.46
2016-06-13T00:09:40.996Z,960.47
2016-06-13T00:10:40.999Z,960.43
2016-06-13T00:11:41.565Z,960.47
2016-06-13T00:12:41.006Z,960.48
2016-06-13T00:13:40.993Z,960.5
2016-06-13T00:14:40.996Z,960.48
2016-06-13T00:15:40.999Z,960.44
2016-06-13T00:16:41.206Z,960.49
2016-06-13T00:17:41.006Z,960.44
2016-06-13T00:18:41.008Z,960.47
2016-06-13T00:19:41.012Z,960.44
2016-06-13T00:20:41.015Z,960.43
2016-06-13T00:21:41.002Z,960.43
2016-06-13T00:22:41.208Z,960.4
2016-06-13T00:23:41.009Z,960.39
2016-06-13T00:24:41.011Z,960.38
2016-06-13T00:25:41.030Z,960.36
2016-06-13T00:26:41.017Z,960.34
2016-06-13T00:27:41.020Z,960.32
2016-06-13T00:28:41.024Z,960.33
2016-06-13T00:29:41.010Z,960.31
2016-06-13T00:30:41.029Z,960.28
2016-06-13T00:31:41.017Z,960.31
2016-06-13T00:32:41.020Z,960.33
2016-06-13T00:33:41.023Z,960.29
2016-06-13T00:34:41.026Z,960.25
2016-06-13T00:35:41.029Z,960.25
2016-06-13T00:36:41.032Z,960.25
2016-06-13T00:37:41.035Z,960.24
2016-06-13T00:38:41.023Z,960.25
2016-06-13T00:39:41.027Z,960.24
2016-06-13T00:40:41.029Z,960.23
2016-06-13T00:41:41.032Z,960.22
2016-06-13T00:42:41.036Z,960.23
2016-06-13T00:43:41.039Z,960.26
2016-06-13T00:44:41.041Z,960.26
2016-06-13T00:45:41.045Z,960.21
2016-06-13T00:46:41.031Z,960.26
2016-06-13T00:47:41.035Z,960.23
2016-06-13T00:48:41.038Z,960.22
2016-06-13T00:49:41.041Z,960.23
2016-06-13T00:50:41.044Z,960.21
2016-06-13T00:51:41.047Z,960.2
2016-06-13T00:52:41.050Z,960.17
2016-06-13T00:53:41.054Z,960.19
2016-06-13T00:54:41.040Z,960.19
2016-06-13T00:55:41.060Z,960.14
2016-06-13T00:56:41.047Z,960.17
2016-06-13T00:57:41.050Z,960.19
2016-06-13T00:58:41.053Z,960.22
2016-06-13T00:59:41.056Z,960.23
2016-06-13T01:00:41.059Z,960.2
2016-06-13T01:01:41.062Z,960.21
2016-06-13T01:02:41.050Z,960.21
2016-06-13T01:03:41.068Z,960.24
2016-06-13T01:04:41.072Z,960.21
2016-06-13T01:05:41.059Z,960.22
2016-06-13T01:06:41.062Z,960.22
2016-06-13T01:07:41.066Z,960.19
2016-06-13T01:08:41.318Z,960.19
2016-06-13T01:09:41.071Z,960.19
2016-06-13T01:10:41.339Z,960.15
2016-06-13T01:11:41.140Z,960.12
2016-06-13T01:12:41.143Z,960.14
2016-06-13T01:13:41.067Z,960.11
2016-06-13T01:14:41.071Z,960.11
2016-06-13T01:15:41.074Z,960.1
2016-06-13T01:16:41.077Z,960.11
2016-06-13T01:17:41.080Z,960.11
2016-06-13T01:18:41.083Z,960.09
2016-06-13T01:19:41.086Z,960.08
2016-06-13T01:20:41.074Z,960.09
2016-06-13T01:21:41.078Z,960.07
2016-06-13T01:22:41.081Z,960.05
2016-06-13T01:23:41.083Z,960.05
2016-06-13T01:24:41.086Z,960.05
2016-06-13T01:25:41.604Z,960.06
2016-06-13T01:26:41.155Z,960.06
2016-06-13T01:27:41.080Z,960.04
2016-06-13T01:28:41.083Z,960.01
2016-06-13T01:29:41.086Z,959.97
2016-06-13T01:30:41.089Z,960.01
2016-06-13T01:31:41.092Z,959.96
2016-06-13T01:32:41.095Z,959.92
2016-06-13T01:33:41.099Z,959.9
2016-06-13T01:34:41.101Z,959.87
2016-06-13T01:35:41.088Z,959.86
2016-06-13T01:36:41.092Z,959.87
2016-06-13T01:37:41.095Z,959.89
2016-06-13T01:38:41.098Z,959.89
2016-06-13T01:39:41.100Z,959.89
2016-06-13T01:40:41.104Z,959.91
2016-06-13T01:41:41.092Z,959.94
2016-06-13T01:42:41.095Z,959.92
2016-06-13T01:43:41.098Z,959.86
2016-06-13T01:44:41.102Z,959.88
2016-06-13T01:45:41.104Z,959.87
2016-06-13T01:46:41.107Z,959.82
2016-06-13T01:47:41.110Z,959.81
2016-06-13T01:48:41.113Z,959.77
2016-06-13T01:49:41.117Z,959.74
2016-06-13T01:50:41.103Z,959.76
2016-06-13T01:51:41.106Z,959.74
2016-06-13T01:52:41.109Z,959.75
2016-06-13T01:53:41.113Z,959.71
2016-06-13T01:54:41.115Z,959.71
2016-06-13T01:55:41.119Z,959.7
2016-06-13T01:56:41.122Z,959.66
2016-06-13T01:57:41.122Z,959.68
2016-06-13T01:58:41.109Z,959.64
2016-06-13T01:59:41.112Z,959.67
2016-06-13T02:00:41.115Z,959.65
2016-06-13T02:01:41.119Z,959.61
2016-06-13T02:02:41.121Z,959.61
2016-06-13T02:03:41.124Z,959.6
2016-06-13T02:04:41.128Z,959.61
2016-06-13T02:05:41.115Z,959.58
2016-06-13T02:06:41.119Z,959.57
2016-06-13T02:07:41.122Z,959.54
2016-06-13T02:08:41.124Z,959.51
2016-06-13T02:09:41.128Z,959.52
2016-06-13T02:10:41.131Z,959.52
2016-06-13T02:11:41.134Z,959.49
2016-06-13T02:12:41.137Z,959.45
2016-06-13T02:13:41.124Z,959.44
2016-06-13T02:14:41.143Z,959.44
2016-06-13T02:15:41.131Z,959.41
2016-06-13T02:16:41.133Z,959.43
2016-06-13T02:17:41.136Z,959.44
2016-06-13T02:18:41.139Z,959.44
2016-06-13T02:19:41.143Z,959.43
2016-06-13T02:20:41.146Z,959.41
2016-06-13T02:21:41.134Z,959.42
2016-06-13T02:22:41.137Z,959.4
2016-06-13T02:23:41.140Z,959.45
2016-06-13T02:24:41.143Z,959.44
2016-06-13T02:25:41.146Z,959.45
2016-06-13T02:26:41.149Z,959.46
2016-06-13T02:27:41.152Z,959.43
2016-06-13T02:28:41.155Z,959.41
2016-06-13T02:29:41.143Z,959.38
2016-06-13T02:30:41.145Z,959.38
2016-06-13T02:31:41.149Z,959.33
2016-06-13T02:32:41.152Z,959.34
2016-06-13T02:33:41.155Z,959.34
2016-06-13T02:34:41.157Z,959.27
2016-06-13T02:35:41.161Z,959.28
2016-06-13T02:36:41.148Z,959.26
2016-06-13T02:37:41.151Z,959.26
2016-06-13T02:38:41.154Z,959.24
2016-06-13T02:39:41.157Z,959.22
2016-06-13T02:40:41.160Z,959.19
2016-06-13T02:41:41.351Z,959.2
2016-06-13T02:42:41.166Z,959.21
2016-06-13T02:43:41.170Z,959.22
2016-06-13T02:44:41.173Z,959.22
2016-06-13T02:45:41.160Z,959.24
2016-06-13T02:46:41.164Z,959.23
2016-06-13T02:47:41.167Z,959.25
2016-06-13T02:48:41.170Z,959.28
2016-06-13T02:49:41.172Z,959.25
2016-06-13T02:50:41.175Z,959.24
2016-06-13T02:51:41.179Z,959.21
2016-06-13T02:52:41.166Z,959.19
2016-06-13T02:53:41.169Z,959.2
2016-06-13T02:54:41.172Z,959.19
2016-06-13T02:55:41.176Z,959.18
2016-06-13T02:56:41.662Z,959.12
2016-06-13T02:57:41.181Z,959.11
2016-06-13T02:58:41.185Z,959.1
2016-06-13T02:59:41.172Z,959.08
2016-06-13T03:00:41.175Z,959.09
2016-06-13T03:01:41.177Z,959.05
2016-06-13T03:02:41.181Z,959.05
2016-06-13T03:03:41.184Z,959.05
2016-06-13T03:04:41.187Z,959.07
2016-06-13T03:05:41.190Z,959.04
2016-06-13T03:06:41.193Z,959.01
2016-06-13T03:07:41.181Z,958.98
2016-06-13T03:08:41.185Z,959
2016-06-13T03:09:41.187Z,958.99
2016-06-13T03:10:41.190Z,959.04
2016-06-13T03:11:41.194Z,959.02
2016-06-13T03:12:41.197Z,959.01
2016-06-13T03:13:41.183Z,959.01
2016-06-13T03:14:41.203Z,959.04
2016-06-13T03:15:41.190Z,959.02
2016-06-13T03:16:41.192Z,958.98
2016-06-13T03:17:41.196Z,958.99
2016-06-13T03:18:41.199Z,958.96
2016-06-13T03:19:41.202Z,958.93
2016-06-13T03:20:41.205Z,958.93
2016-06-13T03:21:41.194Z,958.9
2016-06-13T03:22:41.196Z,958.92
2016-06-13T03:23:41.199Z,958.92
2016-06-13T03:24:41.202Z,958.91
2016-06-13T03:25:41.206Z,958.89
2016-06-13T03:26:41.208Z,958.87
2016-06-13T03:27:41.233Z,958.88
2016-06-13T03:28:41.277Z,958.87
2016-06-13T03:29:41.304Z,958.86
2016-06-13T03:30:41.348Z,958.84
2016-06-13T03:31:41.391Z,958.87
2016-06-13T03:32:41.421Z,958.81
2016-06-13T03:33:41.437Z,958.79
2016-06-13T03:34:41.455Z,958.78
2016-06-13T03:35:41.472Z,958.81
2016-06-13T03:36:41.490Z,958.83
2016-06-13T03:37:41.486Z,958.8
2016-06-13T03:38:41.494Z,958.82
2016-06-13T03:39:41.503Z,958.77
2016-06-13T03:40:41.511Z,958.79
2016-06-13T03:41:41.520Z,958.8
2016-06-13T03:42:41.526Z,958.8
2016-06-13T03:43:41.531Z,958.82
2016-06-13T03:44:41.521Z,958.81
2016-06-13T03:45:41.526Z,958.83
2016-06-13T03:46:41.531Z,958.79
2016-06-13T03:47:41.536Z,958.83
2016-06-13T03:48:41.540Z,958.81
2016-06-13T03:49:41.543Z,958.83
2016-06-13T03:50:41.547Z,958.82
2016-06-13T03:51:41.535Z,958.78
2016-06-13T03:52:41.539Z,958.77
2016-06-13T03:53:41.541Z,958.73
2016-06-13T03:54:41.545Z,958.76
2016-06-13T03:55:41.547Z,958.77
2016-06-13T03:56:41.942Z,958.8
2016-06-13T03:57:41.554Z,958.75
2016-06-13T03:58:41.557Z,958.74
2016-06-13T03:59:41.544Z,958.76
2016-06-13T04:00:41.547Z,958.74
2016-06-13T04:01:41.550Z,958.71
2016-06-13T04:02:41.553Z,958.75
2016-06-13T04:03:41.557Z,958.72
2016-06-13T04:04:41.559Z,958.73
2016-06-13T04:05:41.563Z,958.71
2016-06-13T04:06:41.550Z,958.72
2016-06-13T04:07:41.554Z,958.71
2016-06-13T04:08:41.557Z,958.71
2016-06-13T04:09:41.559Z,958.69
2016-06-13T04:10:41.563Z,958.68
2016-06-13T04:11:41.566Z,958.72
2016-06-13T04:12:41.569Z,958.71
2016-06-13T04:13:41.572Z,958.7
2016-06-13T04:14:41.559Z,958.68
2016-06-13T04:15:41.562Z,958.69
2016-06-13T04:16:41.566Z,958.71
2016-06-13T04:17:41.568Z,958.7
2016-06-13T04:18:41.571Z,958.71
2016-06-13T04:19:41.575Z,958.7
2016-06-13T04:20:41.578Z,958.67
2016-06-13T04:21:41.580Z,958.65
2016-06-13T04:22:41.568Z,958.62
2016-06-13T04:23:41.571Z,958.66
2016-06-13T04:24:41.575Z,958.7
2016-06-13T04:25:41.578Z,958.68
2016-06-13T04:26:42.001Z,958.64
2016-06-13T04:27:41.584Z,958.63
2016-06-13T04:28:41.587Z,958.6
2016-06-13T04:29:41.590Z,958.63
2016-06-13T04:30:41.577Z,958.59
2016-06-13T04:31:41.581Z,958.6
2016-06-13T04:32:41.583Z,958.57
2016-06-13T04:33:41.586Z,958.58
2016-06-13T04:34:41.589Z,958.61
2016-06-13T04:35:41.592Z,958.61
2016-06-13T04:36:41.596Z,958.57
2016-06-13T04:37:41.598Z,958.6
2016-06-13T04:38:41.586Z,958.64
2016-06-13T04:39:41.589Z,958.6
2016-06-13T04:40:41.592Z,958.62
2016-06-13T04:41:41.595Z,958.57
2016-06-13T04:42:41.598Z,958.58
2016-06-13T04:43:41.601Z,958.6
2016-06-13T04:44:41.605Z,958.56
2016-06-13T04:45:41.607Z,958.61
2016-06-13T04:46:41.610Z,958.6
2016-06-13T04:47:41.599Z,958.59
2016-06-13T04:48:41.601Z,958.56
2016-06-13T04:49:41.604Z,958.58
2016-06-13T04:50:41.607Z,958.57
2016-06-13T04:51:41.611Z,958.59
2016-06-13T04:52:41.614Z,958.61
2016-06-13T04:53:41.617Z,958.61
2016-06-13T04:54:41.604Z,958.61
2016-06-13T04:55:41.607Z,958.62
2016-06-13T04:56:41.610Z,958.61
2016-06-13T04:57:41.614Z,958.62
2016-06-13T04:58:41.617Z,958.61
2016-06-13T04:59:41.619Z,958.58
2016-06-13T05:00:41.622Z,958.6
2016-06-13T05:01:41.626Z,958.67
2016-06-13T05:02:41.613Z,958.64
2016-06-13T05:03:41.616Z,958.61
2016-06-13T05:04:41.619Z,958.62
2016-06-13T05:05:41.637Z,958.64
2016-06-13T05:06:41.625Z,958.62
2016-06-13T05:07:41.628Z,958.69
2016-06-13T05:08:41.631Z,958.66
2016-06-13T05:09:41.634Z,958.63
2016-06-13T05:10:41.622Z,958.65
2016-06-13T05:11:41.625Z,958.63
2016-06-13T05:12:41.722Z,958.63
2016-06-13T05:13:41.631Z,958.63
2016-06-13T05:14:41.635Z,958.65
2016-06-13T05:15:41.638Z,958.67
2016-06-13T05:16:41.640Z,958.65
2016-06-13T05:17:41.644Z,958.69
2016-06-13T05:18:41.647Z,958.71
2016-06-13T05:19:41.650Z,958.69
2016-06-13T05:20:41.653Z,958.67
2016-06-13T05:21:41.640Z,958.66
2016-06-13T05:22:41.643Z,958.64
2016-06-13T05:23:41.646Z,958.59
2016-06-13T05:24:41.649Z,958.61
2016-06-13T05:25:41.637Z,958.6
2016-06-13T05:26:41.891Z,958.6
2016-06-13T05:27:41.644Z,958.6
2016-06-13T05:28:41.646Z,958.56
2016-06-13T05:29:41.649Z,958.58
2016-06-13T05:30:41.653Z,958.54
2016-06-13T05:31:41.656Z,958.57
2016-06-13T05:32:41.659Z,958.56
2016-06-13T05:33:41.662Z,958.57
2016-06-13T05:34:41.665Z,958.54
2016-06-13T05:35:41.668Z,958.59
2016-06-13T05:36:41.655Z,958.58
2016-06-13T05:37:41.658Z,958.55
2016-06-13T05:38:41.661Z,958.55
2016-06-13T05:39:41.664Z,958.59
2016-06-13T05:40:41.667Z,958.55
2016-06-13T05:41:41.670Z,958.55
2016-06-13T05:42:41.690Z,958.51
2016-06-13T05:43:41.661Z,958.51
2016-06-13T05:44:41.664Z,958.56
2016-06-13T05:45:41.667Z,958.52
2016-06-13T05:46:41.670Z,958.51
2016-06-13T05:47:41.673Z,958.56
2016-06-13T05:48:41.676Z,958.52
2016-06-13T05:49:41.679Z,958.55
2016-06-13T05:50:41.682Z,958.57
2016-06-13T05:51:41.670Z,958.55
2016-06-13T05:52:41.688Z,958.56
2016-06-13T05:53:41.676Z,958.56
2016-06-13T05:54:41.680Z,958.55
2016-06-13T05:55:41.683Z,958.56
2016-06-13T05:56:41.685Z,958.57
2016-06-13T05:57:42.189Z,958.54
2016-06-13T05:58:41.692Z,958.57
2016-06-13T05:59:41.695Z,958.54
2016-06-13T06:00:41.698Z,958.56
2016-06-13T06:01:41.684Z,958.53
2016-06-13T06:02:41.688Z,958.54
2016-06-13T06:03:41.691Z,958.53
2016-06-13T06:04:41.694Z,958.51
2016-06-13T06:05:41.697Z,958.54
2016-06-13T06:06:41.701Z,958.5
2016-06-13T06:07:41.703Z,958.49
2016-06-13T06:08:41.690Z,958.46
2016-06-13T06:09:41.693Z,958.43
2016-06-13T06:10:41.697Z,958.42
2016-06-13T06:11:41.700Z,958.43
2016-06-13T06:12:41.702Z,958.48
2016-06-13T06:13:41.706Z,958.46
2016-06-13T06:14:41.709Z,958.44
2016-06-13T06:15:41.712Z,958.44
2016-06-13T06:16:41.715Z,958.46
2016-06-13T06:17:41.718Z,958.41
2016-06-13T06:18:41.706Z,958.41
2016-06-13T06:19:41.709Z,958.43
2016-06-13T06:20:41.712Z,958.4
2016-06-13T06:21:41.715Z,958.39
2016-06-13T06:22:41.718Z,958.39
2016-06-13T06:23:41.722Z,958.37
2016-06-13T06:24:41.740Z,958.41
2016-06-13T06:25:41.711Z,958.42
2016-06-13T06:26:41.731Z,958.42
2016-06-13T06:27:41.734Z,958.42
2016-06-13T06:28:41.721Z,958.45
2016-06-13T06:29:41.724Z,958.44
2016-06-13T06:30:41.727Z,958.39
2016-06-13T06:31:41.730Z,958.38
2016-06-13T06:32:41.733Z,958.43
2016-06-13T06:33:41.736Z,958.38
2016-06-13T06:34:41.740Z,958.37
2016-06-13T06:35:41.743Z,958.39
2016-06-13T06:36:41.746Z,958.41
2016-06-13T06:37:41.733Z,958.38
2016-06-13T06:38:41.736Z,958.38
2016-06-13T06:39:41.740Z,958.36
2016-06-13T06:40:41.743Z,958.35
2016-06-13T06:41:41.746Z,958.33
2016-06-13T06:42:41.749Z,958.31
2016-06-13T06:43:41.752Z,958.32
2016-06-13T06:44:41.755Z,958.3
2016-06-13T06:45:41.758Z,958.29
2016-06-13T06:46:41.745Z,958.29
2016-06-13T06:47:41.765Z,958.31
2016-06-13T06:48:41.751Z,958.33
2016-06-13T06:49:41.755Z,958.3
2016-06-13T06:50:41.757Z,958.33
2016-06-13T06:51:41.761Z,958.32
2016-06-13T06:52:41.764Z,958.29
2016-06-13T06:53:41.767Z,958.28
2016-06-13T06:54:41.770Z,958.25
2016-06-13T06:55:41.772Z,958.23
2016-06-13T06:56:41.776Z,958.19
2016-06-13T06:57:42.170Z,958.2
2016-06-13T06:58:41.782Z,958.18
2016-06-13T06:59:41.769Z,958.23
2016-06-13T07:00:41.772Z,958.22
2016-06-13T07:01:41.776Z,958.21
2016-06-13T07:02:41.778Z,958.18
2016-06-13T07:03:41.781Z,958.2
2016-06-13T07:04:41.785Z,958.19
2016-06-13T07:05:41.788Z,958.15
2016-06-13T07:06:41.823Z,958.16
2016-06-13T07:07:41.794Z,958.16
2016-06-13T07:08:41.782Z,958.2
2016-06-13T07:09:41.800Z,958.18
2016-06-13T07:10:41.788Z,958.15
2016-06-13T07:11:41.791Z,958.12
2016-06-13T07:12:41.809Z,958.12
2016-06-13T07:13:41.859Z,958.18
2016-06-13T07:14:41.801Z,958.2
2016-06-13T07:15:41.803Z,958.17
2016-06-13T07:16:41.807Z,958.2
2016-06-13T07:17:41.810Z,958.14
2016-06-13T07:18:41.813Z,958.12
2016-06-13T07:19:41.816Z,958.14
2016-06-13T07:20:41.818Z,958.14
2016-06-13T07:21:41.822Z,958.08
2016-06-13T07:22:41.825Z,958.11
2016-06-13T07:23:41.828Z,958.13
2016-06-13T07:24:41.831Z,958.1
2016-06-13T07:25:41.819Z,958.12
2016-06-13T07:26:41.821Z,958.12
2016-06-13T07:27:41.824Z,958.05
2016-06-13T07:28:41.828Z,958.05
2016-06-13T07:29:41.831Z,958.04
2016-06-13T07:30:41.833Z,958.05
2016-06-13T07:31:41.836Z,958.05
2016-06-13T07:32:41.839Z,958.08
2016-06-13T07:33:41.843Z,958.09
2016-06-13T07:34:41.845Z,958.06
2016-06-13T07:35:41.849Z,958.08
2016-06-13T07:36:41.836Z,958.11
2016-06-13T07:37:41.855Z,958.09
2016-06-13T07:38:41.842Z,958.09
2016-06-13T07:39:41.845Z,958.12
2016-06-13T07:40:41.848Z,958.11
2016-06-13T07:41:41.852Z,958.14
2016-06-13T07:42:42.183Z,958.17
2016-06-13T07:43:41.858Z,958.16
2016-06-13T07:44:41.861Z,958.08
2016-06-13T07:45:41.863Z,958.06
2016-06-13T07:46:41.866Z,958.08
2016-06-13T07:47:41.870Z,958.04
2016-06-13T07:48:41.873Z,958.07
2016-06-13T07:49:41.876Z,958.05
2016-06-13T07:50:41.879Z,957.96
2016-06-13T07:51:41.882Z,958.01
2016-06-13T07:52:41.870Z,958.05
2016-06-13T07:53:41.889Z,958.02
2016-06-13T07:54:41.876Z,958.02
2016-06-13T07:55:41.879Z,958.05
2016-06-13T07:56:41.883Z,958.04
2016-06-13T07:57:41.886Z,957.98
2016-06-13T07:58:41.888Z,957.94
2016-06-13T07:59:41.892Z,957.9
2016-06-13T08:00:41.895Z,957.88
2016-06-13T08:01:41.898Z,957.86
2016-06-13T08:02:41.901Z,957.92
2016-06-13T08:03:41.904Z,957.95
2016-06-13T08:04:41.891Z,957.95
2016-06-13T08:05:41.910Z,957.9
2016-06-13T08:06:41.897Z,957.9
2016-06-13T08:07:41.916Z,957.93
2016-06-13T08:08:41.903Z,957.98
2016-06-13T08:09:41.907Z,957.96
2016-06-13T08:10:41.909Z,958
2016-06-13T08:11:41.912Z,957.94
2016-06-13T08:12:42.322Z,957.92
2016-06-13T08:13:41.919Z,957.92
2016-06-13T08:14:41.921Z,957.91
2016-06-13T08:15:41.925Z,957.88
2016-06-13T08:16:41.927Z,957.92
2016-06-13T08:17:41.931Z,957.91
2016-06-13T08:18:41.934Z,957.86
2016-06-13T08:19:41.937Z,957.92
2016-06-13T08:20:41.940Z,957.88
2016-06-13T08:21:41.929Z,957.92
2016-06-13T08:22:41.946Z,957.91
2016-06-13T08:23:41.935Z,957.94
2016-06-13T08:24:41.937Z,957.92
2016-06-13T08:25:41.940Z,957.89
2016-06-13T08:26:41.944Z,957.87
2016-06-13T08:27:42.806Z,957.9
2016-06-13T08:28:41.949Z,957.87
2016-06-13T08:29:41.953Z,957.9
2016-06-13T08:30:41.956Z,957.9
2016-06-13T08:31:41.959Z,957.91
2016-06-13T08:32:41.962Z,957.84
2016-06-13T08:33:41.965Z,957.86
2016-06-13T08:34:41.968Z,957.89
2016-06-13T08:35:41.971Z,957.86
2016-06-13T08:36:41.975Z,957.85
2016-06-13T08:37:41.978Z,957.82
2016-06-13T08:38:41.965Z,957.8
2016-06-13T08:39:41.967Z,957.84
2016-06-13T08:40:41.971Z,957.83
2016-06-13T08:41:41.974Z,957.85
2016-06-13T08:42:41.976Z,957.78
2016-06-13T08:43:41.980Z,957.8
2016-06-13T08:44:41.983Z,957.79
2016-06-13T08:45:41.986Z,957.77
2016-06-13T08:46:41.989Z,957.79
2016-06-13T08:47:41.992Z,957.76
2016-06-13T08:48:41.995Z,957.77
2016-06-13T08:49:41.999Z,957.78
2016-06-13T08:50:42.001Z,957.77
2016-06-13T08:51:42.004Z,957.8
2016-06-13T08:52:42.008Z,957.78
2016-06-13T08:53:42.011Z,957.76
2016-06-13T08:54:42.013Z,957.77
2016-06-13T08:55:42.017Z,957.74
2016-06-13T08:56:42.004Z,957.75
2016-06-13T08:57:42.023Z,957.71
2016-06-13T08:58:42.010Z,957.67
2016-06-13T08:59:42.013Z,957.72
2016-06-13T09:00:42.016Z,957.72
2016-06-13T09:01:42.020Z,957.69
2016-06-13T09:02:42.022Z,957.72
2016-06-13T09:03:42.025Z,957.69
2016-06-13T09:04:42.028Z,957.68
2016-06-13T09:05:42.032Z,957.69
2016-06-13T09:06:42.034Z,957.64
2016-06-13T09:07:42.038Z,957.63
2016-06-13T09:08:42.041Z,957.65
2016-06-13T09:09:42.044Z,957.66
2016-06-13T09:10:42.047Z,957.6
2016-06-13T09:11:42.049Z,957.59
2016-06-13T09:12:42.053Z,957.56
2016-06-13T09:13:42.056Z,957.6
2016-06-13T09:14:42.059Z,957.59
2016-06-13T09:15:42.047Z,957.54
2016-06-13T09:16:42.051Z,957.57
2016-06-13T09:17:42.053Z,957.51
2016-06-13T09:18:42.071Z,957.53
2016-06-13T09:19:42.060Z,957.54
2016-06-13T09:20:42.063Z,957.53
2016-06-13T09:21:42.065Z,957.54
2016-06-13T09:22:42.069Z,957.53
2016-06-13T09:23:42.072Z,957.56
2016-06-13T09:24:42.074Z,957.55
2016-06-13T09:25:42.078Z,957.53
2016-06-13T09:26:42.081Z,957.49
2016-06-13T09:27:42.084Z,957.5
2016-06-13T09:28:42.087Z,957.51
2016-06-13T09:29:42.091Z,957.53
2016-06-13T09:30:42.093Z,957.52
2016-06-13T09:31:42.096Z,957.5
2016-06-13T09:32:42.100Z,957.48
2016-06-13T09:33:42.103Z,957.48
2016-06-13T09:34:42.106Z,957.5
2016-06-13T09:35:42.109Z,957.53
2016-06-13T09:36:42.111Z,957.48
2016-06-13T09:37:42.115Z,957.43
2016-06-13T09:38:42.118Z,957.45
2016-06-13T09:39:42.121Z,957.45
2016-06-13T09:40:42.124Z,957.41
2016-06-13T09:41:42.127Z,957.43
2016-06-13T09:42:42.130Z,957.42
2016-06-13T09:43:42.290Z,957.43
2016-06-13T09:44:42.121Z,957.36
2016-06-13T09:45:42.139Z,957.4
2016-06-13T09:46:42.142Z,957.42
2016-06-13T09:47:42.130Z,957.37
2016-06-13T09:48:42.133Z,957.41
2016-06-13T09:49:42.135Z,957.37
2016-06-13T09:50:42.139Z,957.37
2016-06-13T09:51:42.142Z,957.36
2016-06-13T09:52:42.145Z,957.37
2016-06-13T09:53:42.148Z,957.33
2016-06-13T09:54:42.151Z,957.35
2016-06-13T09:55:42.155Z,957.31
2016-06-13T09:56:42.157Z,957.3
2016-06-13T09:57:42.160Z,957.3
2016-06-13T09:58:42.164Z,957.25
2016-06-13T09:59:42.166Z,957.29
2016-06-13T10:00:42.169Z,957.3
2016-06-13T10:01:42.172Z,957.32
2016-06-13T10:02:42.176Z,957.31
2016-06-13T10:03:42.179Z,957.35
2016-06-13T10:04:42.197Z,957.35
2016-06-13T10:05:42.201Z,957.35
2016-06-13T10:06:42.204Z,957.33
2016-06-13T10:07:42.191Z,957.3
2016-06-13T10:08:42.194Z,957.29
2016-06-13T10:09:42.198Z,957.33
2016-06-13T10:10:42.200Z,957.38
2016-06-13T10:11:42.203Z,957.38
2016-06-13T10:12:42.645Z,957.34
2016-06-13T10:13:42.226Z,957.34
2016-06-13T10:14:42.212Z,957.37
2016-06-13T10:15:42.215Z,957.38
2016-06-13T10:16:42.219Z,957.35
2016-06-13T10:17:42.222Z,957.33
2016-06-13T10:18:42.225Z,957.36
2016-06-13T10:19:42.227Z,957.34
2016-06-13T10:20:42.231Z,957.34
2016-06-13T10:21:42.234Z,957.32
2016-06-13T10:22:42.237Z,957.34
2016-06-13T10:23:42.224Z,957.29
2016-06-13T10:24:42.244Z,957.33
2016-06-13T10:25:42.246Z,957.32
2016-06-13T10:26:42.249Z,957.35
2016-06-13T10:27:42.236Z,957.31
2016-06-13T10:28:42.256Z,957.32
2016-06-13T10:29:42.243Z,957.28
2016-06-13T10:30:42.245Z,957.29
2016-06-13T10:31:42.265Z,957.27
2016-06-13T10:32:42.252Z,957.25
2016-06-13T10:33:42.255Z,957.21
2016-06-13T10:34:42.258Z,957.24
2016-06-13T10:35:42.262Z,957.22
2016-06-13T10:36:42.264Z,957.23
2016-06-13T10:37:42.267Z,957.2
2016-06-13T10:38:42.270Z,957.16
2016-06-13T10:39:42.273Z,957.21
2016-06-13T10:40:42.276Z,957.19
2016-06-13T10:41:42.280Z,957.17
2016-06-13T10:42:42.283Z,957.15
2016-06-13T10:43:42.286Z,957.18
2016-06-13T10:44:42.288Z,957.17
2016-06-13T10:45:42.292Z,957.16
2016-06-13T10:46:42.295Z,957.15
2016-06-13T10:47:42.298Z,957.17
2016-06-13T10:48:42.301Z,957.14
2016-06-13T10:49:42.304Z,957.18
2016-06-13T10:50:42.307Z,957.14
2016-06-13T10:51:42.310Z,957.13
2016-06-13T10:52:42.313Z,957.08
2016-06-13T10:53:42.316Z,957.12
2016-06-13T10:54:42.319Z,957.08
2016-06-13T10:55:42.323Z,957.08
2016-06-13T10:56:42.326Z,957.06
2016-06-13T10:57:42.329Z,957.1
2016-06-13T10:58:42.332Z,957.09
2016-06-13T10:59:42.335Z,957.04
2016-06-13T11:00:42.323Z,957.05
2016-06-13T11:01:42.341Z,957.02
2016-06-13T11:02:42.329Z,957.03
2016-06-13T11:03:42.332Z,957.03
2016-06-13T11:04:42.350Z,957.04
2016-06-13T11:05:42.353Z,956.97
2016-06-13T11:06:42.357Z,956.97
2016-06-13T11:07:42.345Z,956.96
2016-06-13T11:08:42.363Z,956.94
2016-06-13T11:09:42.351Z,956.9
2016-06-13T11:10:42.354Z,956.9
2016-06-13T11:11:42.357Z,956.92
2016-06-13T11:12:42.360Z,956.89
2016-06-13T11:13:42.363Z,956.9
2016-06-13T11:14:42.366Z,956.87
2016-06-13T11:15:42.369Z,956.89
2016-06-13T11:16:42.372Z,956.88
2016-06-13T11:17:42.375Z,956.89
2016-06-13T11:18:42.378Z,956.84
2016-06-13T11:19:42.396Z,956.86
2016-06-13T11:20:42.385Z,956.8
2016-06-13T11:21:42.388Z,956.8
2016-06-13T11:22:42.391Z,956.79
2016-06-13T11:23:42.393Z,956.75
2016-06-13T11:24:42.397Z,956.75
2016-06-13T11:25:42.400Z,956.75
2016-06-13T11:26:42.403Z,956.73
2016-06-13T11:27:42.406Z,956.69
2016-06-13T11:28:42.409Z,956.69
2016-06-13T11:29:42.412Z,956.71
2016-06-13T11:30:42.415Z,956.68
2016-06-13T11:31:42.418Z,956.69
2016-06-13T11:32:42.421Z,956.7
2016-06-13T11:33:42.439Z,956.67
2016-06-13T11:34:42.428Z,956.71
2016-06-13T11:35:42.431Z,956.67
2016-06-13T11:36:42.434Z,956.66
2016-06-13T11:37:42.437Z,956.64
2016-06-13T11:38:42.440Z,956.62
2016-06-13T11:39:42.443Z,956.63
2016-06-13T11:40:42.461Z,956.63
2016-06-13T11:41:42.449Z,956.6
2016-06-13T11:42:42.452Z,956.58
2016-06-13T11:43:42.830Z,956.55
2016-06-13T11:44:42.459Z,956.58
2016-06-13T11:45:42.462Z,956.59
2016-06-13T11:46:42.479Z,956.59
2016-06-13T11:47:42.467Z,956.58
2016-06-13T11:48:42.470Z,956.58
2016-06-13T11:49:42.488Z,956.59
2016-06-13T11:50:42.491Z,956.57
2016-06-13T11:51:42.495Z,956.6
2016-06-13T11:52:42.498Z,956.57
2016-06-13T11:53:42.501Z,956.56
2016-06-13T11:54:42.504Z,956.56
2016-06-13T11:55:42.507Z,956.59
2016-06-13T11:56:42.510Z,956.56
2016-06-13T11:57:42.514Z,956.52
2016-06-13T11:58:42.516Z,956.54
2016-06-13T11:59:42.519Z,956.53
2016-06-13T12:00:42.522Z,956.52
2016-06-13T12:01:42.526Z,956.46
2016-06-13T12:02:42.514Z,956.46
2016-06-13T12:03:42.531Z,956.45
2016-06-13T12:04:42.535Z,956.42
2016-06-13T12:05:42.537Z,956.39
2016-06-13T12:06:42.540Z,956.36
2016-06-13T12:07:42.544Z,956.38
2016-06-13T12:08:42.547Z,956.4
2016-06-13T12:09:42.550Z,956.38
2016-06-13T12:10:42.553Z,956.38
2016-06-13T12:11:42.556Z,956.37
2016-06-13T12:12:42.559Z,956.33
2016-06-13T12:13:42.562Z,956.31
2016-06-13T12:14:43.206Z,956.27
2016-06-13T12:15:42.569Z,956.25
2016-06-13T12:16:42.571Z,956.28
2016-06-13T12:17:42.574Z,956.27
2016-06-13T12:18:42.578Z,956.3
2016-06-13T12:19:42.581Z,956.31
2016-06-13T12:20:42.584Z,956.33
2016-06-13T12:21:42.587Z,956.33
2016-06-13T12:22:42.590Z,956.3
2016-06-13T12:23:42.593Z,956.32
2016-06-13T12:24:42.596Z,956.31
2016-06-13T12:25:42.600Z,956.32
2016-06-13T12:26:42.602Z,956.32
2016-06-13T12:27:42.605Z,956.32
2016-06-13T12:28:42.609Z,956.34
2016-06-13T12:29:42.612Z,956.29
2016-06-13T12:30:42.615Z,956.34
2016-06-13T12:31:42.617Z,956.35